SDG002 LIPZ-LICC
Flight info
| Callsign | SDG002 |
|---|---|
| Flight time | 1h 18m |
| Altitude | 41000 |
| Route | CHI DCT UXUTA |
| Aircraft | A346/H-SDE3FGHIRWY/C |
Departure
| Time | 2026-05-05 19:58 |
|---|---|
| Airport | Venice Marco Polo Airport (LIPZ) |
Arrival
| Time | 2026-05-05 21:17 |
|---|---|
| Airport | Catania-Fontanarossa Airport (LICC) |
| Time | Latitude | Longitude | Altitude | Speed | Heading |
|---|---|---|---|---|---|
| 2026-05-05 19:29 | 45.50550 | 12.34232 | 18 ft | 0 kts | 267° |
| 2026-05-05 19:43 | 45.50550 | 12.34233 | 18 ft | 1 kts | 264° |
| 2026-05-05 19:43 | 45.50553 | 12.34252 | 18 ft | 2 kts | 237° |
| 2026-05-05 19:43 | 45.50564 | 12.34266 | 18 ft | 2 kts | 204° |
| 2026-05-05 19:43 | 45.50579 | 12.34271 | 18 ft | 2 kts | 174° |
| 2026-05-05 19:44 | 45.50584 | 12.34270 | 18 ft | 0 kts | 172° |
| 2026-05-05 19:45 | 45.50570 | 12.34276 | 18 ft | 3 kts | 156° |
| 2026-05-05 19:46 | 45.50493 | 12.34329 | 18 ft | 26 kts | 161° |
| 2026-05-05 19:46 | 45.50306 | 12.34347 | 18 ft | 26 kts | 196° |
| 2026-05-05 19:46 | 45.50164 | 12.34189 | 21 ft | 26 kts | 223° |
| 2026-05-05 19:46 | 45.50026 | 12.34009 | 21 ft | 19 kts | 222° |
| 2026-05-05 19:47 | 45.49995 | 12.33968 | 21 ft | 25 kts | 222° |
| 2026-05-05 19:47 | 45.49916 | 12.33865 | 18 ft | 0 kts | 223° |
| 2026-05-05 19:48 | 45.49914 | 12.33863 | 18 ft | 1 kts | 223° |
| 2026-05-05 19:48 | 45.49893 | 12.33835 | 18 ft | 6 kts | 221° |
| 2026-05-05 19:48 | 45.49845 | 12.33787 | 18 ft | 10 kts | 214° |
| 2026-05-05 19:48 | 45.49777 | 12.33717 | 18 ft | 13 kts | 218° |
| 2026-05-05 19:49 | 45.49723 | 12.33653 | 18 ft | 0 kts | 219° |
| 2026-05-05 19:51 | 45.49722 | 12.33652 | 18 ft | 2 kts | 218° |
| 2026-05-05 19:52 | 45.49660 | 12.33581 | 16 ft | 15 kts | 222° |
| 2026-05-05 19:52 | 45.49582 | 12.33524 | 15 ft | 9 kts | 156° |
| 2026-05-05 19:52 | 45.49577 | 12.33528 | 15 ft | 0 kts | 147° |
| 2026-05-05 19:56 | 45.49571 | 12.33533 | 15 ft | 2 kts | 149° |
| 2026-05-05 19:56 | 45.49529 | 12.33578 | 16 ft | 9 kts | 138° |
| 2026-05-05 19:57 | 45.49479 | 12.33662 | 18 ft | 11 kts | 116° |
| 2026-05-05 19:57 | 45.49458 | 12.33739 | 18 ft | 13 kts | 109° |
| 2026-05-05 19:57 | 45.49481 | 12.33852 | 18 ft | 0 kts | 50° |
| 2026-05-05 19:57 | 45.49485 | 12.33859 | 18 ft | 3 kts | 50° |
| 2026-05-05 19:58 | 45.49511 | 12.33901 | 18 ft | 13 kts | 43° |
| 2026-05-05 19:58 | 45.49800 | 12.34271 | 18 ft | 101 kts | 41° |
| 2026-05-05 19:58 | 45.50528 | 12.35206 | 41 ft | 174 kts | 41° |
| 2026-05-05 19:58 | 45.51500 | 12.36468 | 691 ft | 198 kts | 44° |
| 2026-05-05 19:59 | 45.52492 | 12.37860 | 1768 ft | 209 kts | 44° |
| 2026-05-05 19:59 | 45.53474 | 12.39423 | 2788 ft | 224 kts | 63° |
| 2026-05-05 19:59 | 45.53764 | 12.41527 | 3716 ft | 227 kts | 94° |
| 2026-05-05 19:59 | 45.53531 | 12.43759 | 4674 ft | 231 kts | 101° |
| 2026-05-05 20:00 | 45.53227 | 12.45992 | 5649 ft | 233 kts | 101° |
| 2026-05-05 20:00 | 45.52945 | 12.48233 | 6594 ft | 235 kts | 101° |
| 2026-05-05 20:00 | 45.52675 | 12.50561 | 7476 ft | 241 kts | 103° |
| 2026-05-05 20:00 | 45.52070 | 12.52730 | 8253 ft | 242 kts | 135° |
| 2026-05-05 20:01 | 45.50673 | 12.53973 | 8954 ft | 243 kts | 172° |
| 2026-05-05 20:01 | 45.48959 | 12.53872 | 9526 ft | 255 kts | 193° |
| 2026-05-05 20:01 | 45.47161 | 12.53364 | 10125 ft | 273 kts | 193° |
| 2026-05-05 20:01 | 45.45267 | 12.52859 | 10721 ft | 290 kts | 193° |
| 2026-05-05 20:02 | 45.43214 | 12.52342 | 11277 ft | 309 kts | 193° |
| 2026-05-05 20:02 | 45.41044 | 12.51815 | 11810 ft | 329 kts | 193° |
| 2026-05-05 20:02 | 45.38717 | 12.51258 | 12337 ft | 348 kts | 193° |
| 2026-05-05 20:02 | 45.36269 | 12.50663 | 12875 ft | 366 kts | 194° |
| 2026-05-05 20:03 | 45.33825 | 12.49726 | 13710 ft | 371 kts | 202° |
| 2026-05-05 20:03 | 45.31435 | 12.48310 | 14711 ft | 372 kts | 209° |
| 2026-05-05 20:03 | 45.29178 | 12.46533 | 15671 ft | 374 kts | 212° |
| 2026-05-05 20:03 | 45.26934 | 12.44662 | 16585 ft | 378 kts | 212° |
| 2026-05-05 20:04 | 45.24674 | 12.42762 | 17462 ft | 382 kts | 212° |
| 2026-05-05 20:04 | 45.22405 | 12.40859 | 18318 ft | 386 kts | 212° |
| 2026-05-05 20:04 | 45.20085 | 12.38920 | 19146 ft | 391 kts | 212° |
| 2026-05-05 20:04 | 45.17714 | 12.36943 | 19931 ft | 396 kts | 212° |
| 2026-05-05 20:05 | 45.15368 | 12.34991 | 20677 ft | 401 kts | 212° |
| 2026-05-05 20:05 | 45.12960 | 12.32990 | 21416 ft | 406 kts | 212° |
| 2026-05-05 20:05 | 45.10504 | 12.30986 | 22153 ft | 411 kts | 209° |
| 2026-05-05 20:05 | 45.07776 | 12.29618 | 22824 ft | 422 kts | 194° |
| 2026-05-05 20:06 | 45.04802 | 12.29316 | 23489 ft | 434 kts | 180° |
| 2026-05-05 20:06 | 45.01810 | 12.30088 | 24142 ft | 445 kts | 169° |
| 2026-05-05 20:06 | 44.98815 | 12.31217 | 24791 ft | 450 kts | 169° |
| 2026-05-05 20:06 | 44.95794 | 12.32380 | 25393 ft | 455 kts | 169° |
| 2026-05-05 20:07 | 44.92722 | 12.33561 | 25997 ft | 460 kts | 169° |
| 2026-05-05 20:07 | 44.89798 | 12.34678 | 26558 ft | 464 kts | 169° |
| 2026-05-05 20:07 | 44.86562 | 12.35906 | 27167 ft | 468 kts | 169° |
| 2026-05-05 20:07 | 44.83408 | 12.37095 | 27727 ft | 473 kts | 170° |
| 2026-05-05 20:08 | 44.80255 | 12.38281 | 28272 ft | 477 kts | 170° |
| 2026-05-05 20:08 | 44.77040 | 12.39491 | 28945 ft | 477 kts | 170° |
| 2026-05-05 20:08 | 44.73873 | 12.40687 | 29723 ft | 475 kts | 170° |
| 2026-05-05 20:08 | 44.70674 | 12.41892 | 30470 ft | 473 kts | 171° |
| 2026-05-05 20:09 | 44.67530 | 12.43074 | 31152 ft | 471 kts | 171° |
| 2026-05-05 20:09 | 44.64386 | 12.44252 | 31781 ft | 470 kts | 171° |
| 2026-05-05 20:09 | 44.61239 | 12.45429 | 32379 ft | 469 kts | 172° |
| 2026-05-05 20:09 | 44.58105 | 12.46599 | 32976 ft | 468 kts | 172° |
| 2026-05-05 20:10 | 44.54977 | 12.47765 | 33548 ft | 467 kts | 172° |
| 2026-05-05 20:10 | 44.51821 | 12.48940 | 34106 ft | 466 kts | 172° |
| 2026-05-05 20:10 | 44.48711 | 12.50094 | 34642 ft | 464 kts | 172° |
| 2026-05-05 20:10 | 44.45570 | 12.51255 | 35155 ft | 463 kts | 172° |
| 2026-05-05 20:11 | 44.42464 | 12.52401 | 35619 ft | 463 kts | 172° |
| 2026-05-05 20:11 | 44.39372 | 12.53542 | 36050 ft | 462 kts | 172° |
| 2026-05-05 20:11 | 44.36254 | 12.54694 | 36443 ft | 462 kts | 172° |
| 2026-05-05 20:11 | 44.33145 | 12.55842 | 36805 ft | 463 kts | 172° |
| 2026-05-05 20:12 | 44.30044 | 12.56986 | 37153 ft | 463 kts | 171° |
| 2026-05-05 20:12 | 44.26923 | 12.58137 | 37486 ft | 463 kts | 171° |
| 2026-05-05 20:12 | 44.23835 | 12.59275 | 37799 ft | 463 kts | 171° |
| 2026-05-05 20:12 | 44.20723 | 12.60421 | 38088 ft | 463 kts | 171° |
| 2026-05-05 20:13 | 44.17629 | 12.61558 | 38347 ft | 464 kts | 171° |
| 2026-05-05 20:13 | 44.14493 | 12.62710 | 38600 ft | 464 kts | 171° |
| 2026-05-05 20:13 | 44.11373 | 12.63852 | 38844 ft | 465 kts | 171° |
| 2026-05-05 20:13 | 44.08261 | 12.64990 | 39089 ft | 465 kts | 171° |
| 2026-05-05 20:14 | 44.05294 | 12.66082 | 39311 ft | 465 kts | 171° |
| 2026-05-05 20:14 | 44.02150 | 12.67246 | 39540 ft | 464 kts | 171° |
| 2026-05-05 20:14 | 43.99068 | 12.68384 | 39759 ft | 464 kts | 171° |
| 2026-05-05 20:14 | 43.95912 | 12.69548 | 39930 ft | 465 kts | 171° |
| 2026-05-05 20:15 | 43.92800 | 12.70686 | 40071 ft | 466 kts | 171° |
| 2026-05-05 20:15 | 43.89833 | 12.71768 | 40225 ft | 466 kts | 171° |
| 2026-05-05 20:15 | 43.86895 | 12.72835 | 40402 ft | 466 kts | 171° |
| 2026-05-05 20:16 | 43.80367 | 12.75201 | 40779 ft | 465 kts | 171° |
| 2026-05-05 20:16 | 43.77293 | 12.76315 | 40924 ft | 465 kts | 171° |
| 2026-05-05 20:16 | 43.74129 | 12.77459 | 40956 ft | 467 kts | 171° |
| 2026-05-05 20:17 | 43.67892 | 12.79716 | 40968 ft | 467 kts | 171° |
| 2026-05-05 20:17 | 43.61616 | 12.81981 | 40976 ft | 467 kts | 171° |
| 2026-05-05 20:18 | 43.55312 | 12.84249 | 40980 ft | 467 kts | 171° |
| 2026-05-05 20:18 | 43.49054 | 12.86495 | 40982 ft | 468 kts | 171° |
| 2026-05-05 20:19 | 43.42769 | 12.88746 | 40983 ft | 468 kts | 171° |
| 2026-05-05 20:19 | 43.36443 | 12.91008 | 40983 ft | 468 kts | 171° |
| 2026-05-05 20:20 | 43.30144 | 12.93255 | 40983 ft | 468 kts | 171° |
| 2026-05-05 20:20 | 43.23866 | 12.95490 | 40983 ft | 469 kts | 171° |
| 2026-05-05 20:21 | 43.17557 | 12.97729 | 40983 ft | 469 kts | 171° |
| 2026-05-05 20:21 | 43.11264 | 12.99959 | 40988 ft | 469 kts | 171° |
| 2026-05-05 20:22 | 43.04964 | 13.02188 | 40997 ft | 469 kts | 171° |
| 2026-05-05 20:22 | 42.98655 | 13.04415 | 41005 ft | 469 kts | 171° |
| 2026-05-05 20:23 | 42.92354 | 13.06634 | 41009 ft | 469 kts | 171° |
| 2026-05-05 20:23 | 42.86152 | 13.08812 | 41011 ft | 469 kts | 171° |
| 2026-05-05 20:24 | 42.79834 | 13.11023 | 41011 ft | 469 kts | 171° |
| 2026-05-05 20:24 | 42.73545 | 13.13223 | 41011 ft | 470 kts | 171° |
| 2026-05-05 20:25 | 42.67213 | 13.15433 | 41011 ft | 470 kts | 171° |
| 2026-05-05 20:25 | 42.60857 | 13.17650 | 41012 ft | 470 kts | 171° |
| 2026-05-05 20:26 | 42.54535 | 13.19848 | 41013 ft | 470 kts | 171° |
| 2026-05-05 20:26 | 42.48200 | 13.22047 | 41013 ft | 471 kts | 171° |
| 2026-05-05 20:27 | 42.41888 | 13.24233 | 41013 ft | 471 kts | 171° |
| 2026-05-05 20:27 | 42.35526 | 13.26431 | 41013 ft | 471 kts | 171° |
| 2026-05-05 20:28 | 42.29206 | 13.28610 | 41013 ft | 472 kts | 171° |
| 2026-05-05 20:28 | 42.22844 | 13.30799 | 41013 ft | 472 kts | 171° |
| 2026-05-05 20:29 | 42.16481 | 13.32985 | 41013 ft | 472 kts | 171° |
| 2026-05-05 20:29 | 42.10126 | 13.35165 | 41013 ft | 472 kts | 171° |
| 2026-05-05 20:30 | 42.03769 | 13.37339 | 41013 ft | 473 kts | 171° |
| 2026-05-05 20:30 | 41.97376 | 13.39518 | 41019 ft | 478 kts | 171° |
| 2026-05-05 20:31 | 41.90925 | 13.41713 | 41028 ft | 485 kts | 171° |
| 2026-05-05 20:31 | 41.84637 | 13.43845 | 41034 ft | 490 kts | 171° |
| 2026-05-05 20:32 | 41.78045 | 13.46077 | 41037 ft | 494 kts | 171° |
| 2026-05-05 20:32 | 41.71329 | 13.48348 | 41038 ft | 497 kts | 171° |
| 2026-05-05 20:33 | 41.64659 | 13.50604 | 41038 ft | 497 kts | 171° |
| 2026-05-05 20:33 | 41.57977 | 13.52859 | 41038 ft | 497 kts | 171° |
| 2026-05-05 20:34 | 41.51278 | 13.55111 | 41038 ft | 497 kts | 171° |
| 2026-05-05 20:34 | 41.44610 | 13.57348 | 41038 ft | 497 kts | 171° |
| 2026-05-05 20:35 | 41.37931 | 13.59586 | 41038 ft | 497 kts | 171° |
| 2026-05-05 20:35 | 41.31232 | 13.61827 | 41038 ft | 497 kts | 171° |
| 2026-05-05 20:36 | 41.24553 | 13.64053 | 41038 ft | 497 kts | 171° |
| 2026-05-05 20:36 | 41.18184 | 13.66183 | 41036 ft | 496 kts | 171° |
| 2026-05-05 20:37 | 41.11509 | 13.68431 | 41037 ft | 496 kts | 171° |
| 2026-05-05 20:37 | 41.04845 | 13.70654 | 41038 ft | 496 kts | 171° |
| 2026-05-05 20:38 | 40.98144 | 13.72874 | 41037 ft | 497 kts | 172° |
| 2026-05-05 20:38 | 40.91471 | 13.75076 | 41038 ft | 497 kts | 171° |
| 2026-05-05 20:39 | 40.84773 | 13.77278 | 41038 ft | 497 kts | 171° |
| 2026-05-05 20:39 | 40.78073 | 13.79476 | 41038 ft | 497 kts | 171° |
| 2026-05-05 20:40 | 40.71381 | 13.81670 | 41038 ft | 497 kts | 171° |
| 2026-05-05 20:40 | 40.64684 | 13.83861 | 41038 ft | 498 kts | 171° |
| 2026-05-05 20:41 | 40.58018 | 13.86037 | 41038 ft | 498 kts | 171° |
| 2026-05-05 20:41 | 40.51277 | 13.88233 | 41038 ft | 499 kts | 171° |
| 2026-05-05 20:42 | 40.44580 | 13.90412 | 41038 ft | 499 kts | 171° |
| 2026-05-05 20:42 | 40.37867 | 13.92594 | 41038 ft | 499 kts | 171° |
| 2026-05-05 20:43 | 40.31162 | 13.94767 | 41038 ft | 499 kts | 171° |
| 2026-05-05 20:43 | 40.24428 | 13.96945 | 41038 ft | 499 kts | 171° |
| 2026-05-05 20:44 | 40.17695 | 13.99118 | 41038 ft | 500 kts | 171° |
| 2026-05-05 20:44 | 40.10949 | 14.01291 | 41038 ft | 500 kts | 171° |
| 2026-05-05 20:45 | 40.00855 | 14.04534 | 41038 ft | 500 kts | 171° |
| 2026-05-05 20:45 | 39.94117 | 14.06695 | 41038 ft | 500 kts | 171° |
| 2026-05-05 20:46 | 39.87754 | 14.08727 | 41037 ft | 500 kts | 171° |
| 2026-05-05 20:46 | 39.81026 | 14.10866 | 41038 ft | 500 kts | 171° |
| 2026-05-05 20:47 | 39.74283 | 14.13009 | 41038 ft | 500 kts | 171° |
| 2026-05-05 20:47 | 39.67580 | 14.15137 | 41041 ft | 500 kts | 171° |
| 2026-05-05 20:48 | 39.60840 | 14.17273 | 41054 ft | 500 kts | 171° |
| 2026-05-05 20:48 | 39.54324 | 14.19336 | 41052 ft | 500 kts | 171° |
| 2026-05-05 20:49 | 39.47571 | 14.21469 | 41044 ft | 500 kts | 171° |
| 2026-05-05 20:49 | 39.40856 | 14.23585 | 41040 ft | 500 kts | 171° |
| 2026-05-05 20:50 | 39.35223 | 14.25358 | 41039 ft | 500 kts | 171° |
| 2026-05-05 20:50 | 39.27380 | 14.27825 | 40754 ft | 494 kts | 171° |
| 2026-05-05 20:51 | 39.24109 | 14.28855 | 40521 ft | 482 kts | 171° |
| 2026-05-05 20:51 | 39.20888 | 14.29869 | 40268 ft | 472 kts | 171° |
| 2026-05-05 20:51 | 39.17735 | 14.30859 | 39893 ft | 465 kts | 171° |
| 2026-05-05 20:51 | 39.14601 | 14.31837 | 39366 ft | 462 kts | 171° |
| 2026-05-05 20:52 | 39.11507 | 14.32801 | 38717 ft | 462 kts | 171° |
| 2026-05-05 20:52 | 39.08420 | 14.33761 | 38029 ft | 463 kts | 171° |
| 2026-05-05 20:52 | 39.05298 | 14.34732 | 37357 ft | 463 kts | 171° |
| 2026-05-05 20:52 | 39.02167 | 14.35705 | 36700 ft | 463 kts | 171° |
| 2026-05-05 20:53 | 38.99028 | 14.36681 | 36050 ft | 463 kts | 171° |
| 2026-05-05 20:53 | 38.95940 | 14.37642 | 35401 ft | 463 kts | 171° |
| 2026-05-05 20:53 | 38.92813 | 14.38612 | 34701 ft | 463 kts | 171° |
| 2026-05-05 20:53 | 38.89722 | 14.39572 | 33978 ft | 465 kts | 171° |
| 2026-05-05 20:54 | 38.87934 | 14.40125 | 33549 ft | 465 kts | 171° |
| 2026-05-05 20:54 | 38.84730 | 14.41116 | 32768 ft | 467 kts | 171° |
| 2026-05-05 20:54 | 38.81589 | 14.42085 | 32016 ft | 468 kts | 171° |
| 2026-05-05 20:54 | 38.78429 | 14.43062 | 31236 ft | 469 kts | 171° |
| 2026-05-05 20:55 | 38.75281 | 14.44035 | 30437 ft | 470 kts | 171° |
| 2026-05-05 20:55 | 38.72117 | 14.45012 | 29621 ft | 472 kts | 171° |
| 2026-05-05 20:55 | 38.68898 | 14.46004 | 28773 ft | 473 kts | 171° |
| 2026-05-05 20:55 | 38.65719 | 14.46981 | 27907 ft | 474 kts | 170° |
| 2026-05-05 20:56 | 38.62511 | 14.47968 | 27023 ft | 475 kts | 170° |
| 2026-05-05 20:56 | 38.59326 | 14.48947 | 26130 ft | 476 kts | 170° |
| 2026-05-05 20:56 | 38.56115 | 14.49936 | 25432 ft | 472 kts | 170° |
| 2026-05-05 20:56 | 38.52968 | 14.50906 | 24846 ft | 465 kts | 170° |
| 2026-05-05 20:57 | 38.49858 | 14.51864 | 24221 ft | 460 kts | 169° |
| 2026-05-05 20:57 | 38.46791 | 14.52805 | 23589 ft | 455 kts | 169° |
| 2026-05-05 20:57 | 38.43733 | 14.53743 | 22948 ft | 450 kts | 169° |
| 2026-05-05 20:57 | 38.40694 | 14.54675 | 22309 ft | 446 kts | 169° |
| 2026-05-05 20:58 | 38.37722 | 14.55585 | 21681 ft | 442 kts | 169° |
| 2026-05-05 20:58 | 38.34751 | 14.56493 | 21056 ft | 438 kts | 169° |
| 2026-05-05 20:58 | 38.31797 | 14.57395 | 20435 ft | 434 kts | 169° |
| 2026-05-05 20:58 | 38.28885 | 14.58283 | 19819 ft | 430 kts | 169° |
| 2026-05-05 20:59 | 38.26027 | 14.59154 | 19213 ft | 426 kts | 169° |
| 2026-05-05 20:59 | 38.23160 | 14.60028 | 18605 ft | 421 kts | 169° |
| 2026-05-05 20:59 | 38.20340 | 14.60886 | 17999 ft | 418 kts | 169° |
| 2026-05-05 20:59 | 38.17532 | 14.61740 | 17382 ft | 414 kts | 169° |
| 2026-05-05 21:00 | 38.14744 | 14.62587 | 16774 ft | 410 kts | 169° |
| 2026-05-05 21:00 | 38.11984 | 14.63425 | 16267 ft | 406 kts | 169° |
| 2026-05-05 21:00 | 38.09234 | 14.64262 | 16060 ft | 406 kts | 169° |
| 2026-05-05 21:00 | 38.06610 | 14.65058 | 16053 ft | 406 kts | 169° |
| 2026-05-05 21:01 | 38.03991 | 14.65862 | 16055 ft | 406 kts | 169° |
| 2026-05-05 21:01 | 38.01218 | 14.66716 | 16046 ft | 406 kts | 169° |
| 2026-05-05 21:01 | 37.98476 | 14.67552 | 16052 ft | 406 kts | 169° |
| 2026-05-05 21:01 | 37.95734 | 14.68382 | 16047 ft | 406 kts | 170° |
| 2026-05-05 21:02 | 37.92971 | 14.69093 | 16047 ft | 405 kts | 173° |
| 2026-05-05 21:02 | 37.90191 | 14.69568 | 16047 ft | 403 kts | 179° |
| 2026-05-05 21:02 | 37.87457 | 14.69179 | 16044 ft | 395 kts | 201° |
| 2026-05-05 21:02 | 37.85073 | 14.67612 | 16054 ft | 389 kts | 220° |
| 2026-05-05 21:03 | 37.83237 | 14.65142 | 16060 ft | 384 kts | 239° |
| 2026-05-05 21:03 | 37.82005 | 14.62156 | 15982 ft | 376 kts | 246° |
| 2026-05-05 21:03 | 37.80922 | 14.59200 | 15321 ft | 376 kts | 246° |
| 2026-05-05 21:03 | 37.79823 | 14.56213 | 14551 ft | 377 kts | 246° |
| 2026-05-05 21:04 | 37.78707 | 14.53225 | 13903 ft | 374 kts | 246° |
| 2026-05-05 21:04 | 37.77593 | 14.50269 | 13309 ft | 370 kts | 246° |
| 2026-05-05 21:04 | 37.76461 | 14.47806 | 13134 ft | 362 kts | 232° |
| 2026-05-05 21:04 | 37.74479 | 14.45885 | 13045 ft | 363 kts | 206° |
| 2026-05-05 21:05 | 37.71992 | 14.45265 | 12967 ft | 367 kts | 181° |
| 2026-05-05 21:05 | 37.69502 | 14.45558 | 12826 ft | 360 kts | 180° |
| 2026-05-05 21:05 | 37.66987 | 14.45453 | 12048 ft | 362 kts | 188° |
| 2026-05-05 21:05 | 37.64485 | 14.45118 | 11088 ft | 371 kts | 188° |
| 2026-05-05 21:06 | 37.61917 | 14.44803 | 10434 ft | 369 kts | 186° |
| 2026-05-05 21:06 | 37.59397 | 14.44570 | 10155 ft | 356 kts | 185° |
| 2026-05-05 21:06 | 37.57000 | 14.44396 | 10088 ft | 339 kts | 185° |
| 2026-05-05 21:06 | 37.54704 | 14.44249 | 10041 ft | 322 kts | 185° |
| 2026-05-05 21:07 | 37.52517 | 14.44115 | 9999 ft | 305 kts | 184° |
| 2026-05-05 21:07 | 37.50450 | 14.44162 | 9922 ft | 292 kts | 177° |
| 2026-05-05 21:07 | 37.48440 | 14.44414 | 9540 ft | 290 kts | 175° |
| 2026-05-05 21:07 | 37.46455 | 14.44698 | 9224 ft | 286 kts | 174° |
| 2026-05-05 21:08 | 37.44491 | 14.44983 | 8927 ft | 281 kts | 174° |
| 2026-05-05 21:08 | 37.42620 | 14.45608 | 8562 ft | 279 kts | 149° |
| 2026-05-05 21:08 | 37.41327 | 14.47353 | 8248 ft | 275 kts | 114° |
| 2026-05-05 21:08 | 37.41048 | 14.49668 | 7991 ft | 270 kts | 82° |
| 2026-05-05 21:09 | 37.41458 | 14.51936 | 7737 ft | 265 kts | 76° |
| 2026-05-05 21:09 | 37.41898 | 14.54184 | 7440 ft | 262 kts | 79° |
| 2026-05-05 21:09 | 37.42237 | 14.56416 | 7158 ft | 258 kts | 82° |
| 2026-05-05 21:09 | 37.42497 | 14.58609 | 6881 ft | 254 kts | 83° |
| 2026-05-05 21:10 | 37.42717 | 14.60806 | 6607 ft | 250 kts | 84° |
| 2026-05-05 21:10 | 37.42915 | 14.62954 | 6338 ft | 247 kts | 84° |
| 2026-05-05 21:10 | 37.43130 | 14.65100 | 6106 ft | 241 kts | 83° |
| 2026-05-05 21:10 | 37.43362 | 14.67142 | 5933 ft | 235 kts | 83° |
| 2026-05-05 21:11 | 37.43573 | 14.69189 | 5627 ft | 234 kts | 84° |
| 2026-05-05 21:11 | 37.43757 | 14.71201 | 5321 ft | 234 kts | 85° |
| 2026-05-05 21:11 | 37.43930 | 14.73233 | 5024 ft | 229 kts | 85° |
| 2026-05-05 21:11 | 37.44089 | 14.75172 | 4713 ft | 220 kts | 85° |
| 2026-05-05 21:12 | 37.44243 | 14.77059 | 4419 ft | 211 kts | 85° |
| 2026-05-05 21:12 | 37.44389 | 14.78860 | 4139 ft | 203 kts | 85° |
| 2026-05-05 21:12 | 37.44529 | 14.80588 | 3870 ft | 195 kts | 85° |
| 2026-05-05 21:12 | 37.44666 | 14.82273 | 3607 ft | 188 kts | 86° |
| 2026-05-05 21:13 | 37.44798 | 14.83892 | 3362 ft | 186 kts | 86° |
| 2026-05-05 21:13 | 37.44930 | 14.85514 | 3120 ft | 186 kts | 86° |
| 2026-05-05 21:13 | 37.45060 | 14.87093 | 2858 ft | 176 kts | 86° |
| 2026-05-05 21:13 | 37.45180 | 14.88561 | 2621 ft | 162 kts | 85° |
| 2026-05-05 21:14 | 37.45292 | 14.89933 | 2401 ft | 152 kts | 85° |
| 2026-05-05 21:14 | 37.45401 | 14.91258 | 2213 ft | 152 kts | 85° |
| 2026-05-05 21:14 | 37.45508 | 14.92573 | 2023 ft | 151 kts | 85° |
| 2026-05-05 21:14 | 37.45615 | 14.93879 | 1833 ft | 151 kts | 85° |
| 2026-05-05 21:15 | 37.45723 | 14.95183 | 1641 ft | 150 kts | 85° |
| 2026-05-05 21:15 | 37.45831 | 14.96482 | 1449 ft | 148 kts | 85° |
| 2026-05-05 21:15 | 37.45938 | 14.97771 | 1262 ft | 145 kts | 85° |
| 2026-05-05 21:15 | 37.46040 | 14.99012 | 1074 ft | 143 kts | 83° |
| 2026-05-05 21:16 | 37.46143 | 15.00244 | 884 ft | 143 kts | 82° |
| 2026-05-05 21:16 | 37.46247 | 15.01489 | 695 ft | 143 kts | 81° |
| 2026-05-05 21:16 | 37.46352 | 15.02739 | 506 ft | 142 kts | 82° |
| 2026-05-05 21:16 | 37.46455 | 15.03981 | 319 ft | 142 kts | 81° |
| 2026-05-05 21:17 | 37.46557 | 15.05198 | 132 ft | 141 kts | 81° |
| 2026-05-05 21:17 | 37.46653 | 15.06350 | 39 ft | 117 kts | 83° |
| 2026-05-05 21:17 | 37.46735 | 15.06976 | 37 ft | 30 kts | 42° |
| 2026-05-05 21:17 | 37.46862 | 15.06944 | 37 ft | 19 kts | 294° |
| 2026-05-05 21:18 | 37.46909 | 15.06885 | 37 ft | 0 kts | 336° |